Time,TemperatureF,DewpointF,PressureIn,WindDirection,WindDirectionDegrees,WindSpeedMPH,WindSpeedGustMPH,Humidity,HourlyPrecipIn,Conditions,Clouds,dailyrainin,SoftwareType,DateUTC
2013-10-05 00:03:00,69.3,65.0,29.96,West,276,0.0,1.0,87,0.00,,,0.00,weatherlink.com 1.10,2013-10-05 04:03:00,
2013-10-05 00:18:00,68.8,65.0,29.96,West,276,0.0,0.0,88,0.00,,,0.00,weatherlink.com 1.10,2013-10-05 04:18:00,
2013-10-05 00:33:00,68.5,65.0,29.96,West,276,0.0,0.0,88,0.00,,,0.00,weatherlink.com 1.10,2013-10-05 04:33:00,
2013-10-05 00:48:00,68.3,65.0,29.96,West,276,0.0,0.0,89,0.00,,,0.00,weatherlink.com 1.10,2013-10-05 04:48:00,
2013-10-05 01:04:00,68.3,65.0,29.97,West,279,0.0,0.0,90,0.00,,,0.00,weatherlink.com 1.10,2013-10-05 05:04:00,
2013-10-05 01:19:00,68.5,65.0,29.97,West,279,0.0,0.0,89,0.00,,,0.00,weatherlink.com 1.10,2013-10-05 05:19:00,
2013-10-05 01:34:00,68.8,65.0,29.97,West,279,0.0,0.0,88,0.00,,,0.00,weatherlink.com 1.10,2013-10-05 05:34:00,
2013-10-05 01:49:00,68.9,65.0,29.98,West,279,0.0,0.0,88,0.00,,,0.00,weatherlink.com 1.10,2013-10-05 05:49:00,
2013-10-05 02:04:00,68.7,65.0,29.98,West,279,0.0,0.0,88,0.00,,,0.00,weatherlink.com 1.10,2013-10-05 06:04:00,
2013-10-05 02:19:00,68.4,65.0,29.97,West,279,0.0,0.0,88,0.00,,,0.00,weatherlink.com 1.10,2013-10-05 06:19:00,
2013-10-05 02:34:00,67.9,64.0,29.97,West,279,0.0,0.0,88,0.00,,,0.00,weatherlink.com 1.10,2013-10-05 06:34:00,
2013-10-05 02:49:00,67.8,65.0,29.97,West,279,0.0,0.0,90,0.00,,,0.00,weatherlink.com 1.10,2013-10-05 06:49:00,
2013-10-05 03:04:00,67.9,65.0,29.97,West,279,0.0,0.0,91,0.00,,,0.00,weatherlink.com 1.10,2013-10-05 07:04:00,
2013-10-05 03:19:00,67.9,66.0,29.98,West,279,0.0,1.0,92,0.00,,,0.00,weatherlink.com 1.10,2013-10-05 07:19:00,
2013-10-05 03:34:00,67.8,66.0,29.97,West,279,0.0,0.0,92,0.00,,,0.00,weatherlink.com 1.10,2013-10-05 07:34:00,
2013-10-05 03:49:00,67.8,66.0,29.97,West,279,0.0,0.0,92,0.00,,,0.00,weatherlink.com 1.10,2013-10-05 07:49:00,
2013-10-05 04:04:00,67.7,65.0,29.97,West,279,0.0,1.0,92,0.00,,,0.00,weatherlink.com 1.10,2013-10-05 08:04:00,
2013-10-05 04:19:00,67.6,65.0,29.98,West,279,0.0,1.0,92,0.00,,,0.00,weatherlink.com 1.10,2013-10-05 08:19:00,
2013-10-05 04:34:00,67.6,65.0,29.98,South,184,0.0,2.0,92,0.00,,,0.00,weatherlink.com 1.10,2013-10-05 08:34:00,
2013-10-05 04:49:00,67.4,65.0,29.98,South,184,0.0,1.0,93,0.00,,,0.00,weatherlink.com 1.10,2013-10-05 08:49:00,
2013-10-05 05:04:00,67.3,65.0,29.99,SW,219,0.0,1.0,93,0.00,,,0.00,weatherlink.com 1.10,2013-10-05 09:04:00,
2013-10-05 05:19:00,67.1,65.0,29.99,South,173,0.0,1.0,93,0.00,,,0.00,weatherlink.com 1.10,2013-10-05 09:19:00,
2013-10-05 05:34:00,66.9,65.0,29.99,South,173,0.0,1.0,94,0.00,,,0.00,weatherlink.com 1.10,2013-10-05 09:34:00,
2013-10-05 05:49:00,66.7,65.0,29.99,South,173,0.0,1.0,94,0.00,,,0.00,weatherlink.com 1.10,2013-10-05 09:49:00,
2013-10-05 06:04:00,66.5,65.0,30.00,South,173,0.0,0.0,94,0.00,,,0.00,weatherlink.com 1.10,2013-10-05 10:04:00,
2013-10-05 06:19:00,66.2,65.0,30.00,South,173,0.0,0.0,94,0.00,,,0.00,weatherlink.com 1.10,2013-10-05 10:19:00,
2013-10-05 06:34:00,65.9,64.0,30.00,South,173,0.0,0.0,94,0.00,,,0.00,weatherlink.com 1.10,2013-10-05 10:34:00,
2013-10-05 06:49:00,65.4,64.0,30.00,South,173,0.0,0.0,94,0.00,,,0.00,weatherlink.com 1.10,2013-10-05 10:49:00,
2013-10-05 07:04:00,64.9,63.0,30.00,South,173,0.0,0.0,94,0.00,,,0.00,weatherlink.com 1.10,2013-10-05 11:04:00,
2013-10-05 07:19:00,64.6,63.0,30.00,South,173,0.0,0.0,95,0.00,,,0.00,weatherlink.com 1.10,2013-10-05 11:19:00,
2013-10-05 07:34:00,64.5,63.0,30.01,South,173,0.0,0.0,95,0.00,,,0.00,weatherlink.com 1.10,2013-10-05 11:34:00,
2013-10-05 07:49:00,64.7,64.0,30.01,South,173,0.0,0.0,96,0.00,,,0.00,weatherlink.com 1.10,2013-10-05 11:49:00,
2013-10-05 08:04:00,65.0,64.0,30.02,South,173,0.0,0.0,96,0.00,,,0.00,weatherlink.com 1.10,2013-10-05 12:04:00,
2013-10-05 08:19:00,65.4,64.0,30.02,South,173,0.0,0.0,96,0.00,,,0.00,weatherlink.com 1.10,2013-10-05 12:19:00,
2013-10-05 08:34:00,65.8,65.0,30.02,NW,321,2.0,2.0,96,0.00,,,0.00,weatherlink.com 1.10,2013-10-05 12:34:00,
2013-10-05 08:49:00,65.9,64.0,30.03,WNW,284,0.0,4.0,94,0.00,,,0.00,weatherlink.com 1.10,2013-10-05 12:49:00,
2013-10-05 09:04:00,66.2,64.0,30.03,WNW,294,0.0,2.0,93,0.00,,,0.00,weatherlink.com 1.10,2013-10-05 13:04:00,
2013-10-05 09:19:00,66.7,64.0,30.04,NE,53,0.0,1.0,92,0.00,,,0.00,weatherlink.com 1.10,2013-10-05 13:19:00,
2013-10-05 09:34:00,67.0,64.0,30.05,South,187,0.0,3.0,91,0.00,,,0.00,weatherlink.com 1.10,2013-10-05 13:34:00,
2013-10-05 09:49:00,66.9,64.0,30.04,NNE,26,1.0,2.0,91,0.00,,,0.00,weatherlink.com 1.10,2013-10-05 13:49:00,
2013-10-05 10:04:00,67.0,64.0,30.04,North,5,0.0,1.0,91,0.00,,,0.00,weatherlink.com 1.10,2013-10-05 14:04:00,
2013-10-05 10:19:00,67.2,64.0,30.05,NE,45,0.0,1.0,90,0.00,,,0.00,weatherlink.com 1.10,2013-10-05 14:19:00,
2013-10-05 10:34:00,67.5,65.0,30.05,NW,325,0.0,4.0,90,0.00,,,0.00,weatherlink.com 1.10,2013-10-05 14:34:00,
2013-10-05 10:49:00,67.6,64.0,30.04,NNE,21,0.0,2.0,89,0.00,,,0.00,weatherlink.com 1.10,2013-10-05 14:49:00,
2013-10-05 11:04:00,67.8,65.0,30.04,NNE,29,0.0,2.0,89,0.00,,,0.00,weatherlink.com 1.10,2013-10-05 15:04:00,
2013-10-05 11:19:00,68.4,65.0,30.04,NNE,32,0.0,1.0,88,0.00,,,0.00,weatherlink.com 1.10,2013-10-05 15:19:00,
2013-10-05 11:34:00,69.2,65.0,30.04,NNW,346,0.0,3.0,86,0.00,,,0.00,weatherlink.com 1.10,2013-10-05 15:34:00,
2013-10-05 11:49:00,69.8,65.0,30.03,NNW,333,0.0,3.0,84,0.00,,,0.00,weatherlink.com 1.10,2013-10-05 15:49:00,
2013-10-05 12:04:00,70.3,66.0,30.03,NNW,338,0.0,3.0,85,0.00,,,0.00,weatherlink.com 1.10,2013-10-05 16:04:00,
2013-10-05 12:20:00,71.5,66.0,30.03,NNW,330,2.0,3.0,82,0.00,,,0.00,weatherlink.com 1.10,2013-10-05 16:20:00,
2013-10-05 12:35:00,72.9,66.0,30.02,WNW,301,2.0,2.0,80,0.00,,,0.00,weatherlink.com 1.10,2013-10-05 16:35:00,
2013-10-05 12:50:00,73.5,66.0,30.02,SE,138,0.0,2.0,78,0.00,,,0.00,weatherlink.com 1.10,2013-10-05 16:50:00,
2013-10-05 13:05:00,73.4,66.0,30.02,SSE,147,2.0,3.0,77,0.00,,,0.00,weatherlink.com 1.10,2013-10-05 17:05:00,
2013-10-05 13:20:00,73.5,66.0,30.00,SSE,167,1.0,3.0,78,0.00,,,0.00,weatherlink.com 1.10,2013-10-05 17:20:00,
2013-10-05 13:35:00,74.0,66.0,30.00,SE,127,1.0,3.0,77,0.00,,,0.00,weatherlink.com 1.10,2013-10-05 17:35:00,
2013-10-05 13:50:00,74.2,67.0,29.99,NW,326,3.0,3.0,77,0.00,,,0.00,weatherlink.com 1.10,2013-10-05 17:50:00,
2013-10-05 14:05:00,74.8,66.0,29.99,NNE,23,0.0,4.0,75,0.00,,,0.00,weatherlink.com 1.10,2013-10-05 18:05:00,
2013-10-05 14:20:00,75.2,66.0,29.98,ESE,113,0.0,3.0,74,0.00,,,0.00,weatherlink.com 1.10,2013-10-05 18:20:00,
2013-10-05 14:35:00,75.8,67.0,29.98,South,174,0.0,2.0,73,0.00,,,0.00,weatherlink.com 1.10,2013-10-05 18:35:00,
2013-10-05 14:50:00,76.0,66.0,29.98,SSE,157,1.0,3.0,72,0.00,,,0.00,weatherlink.com 1.10,2013-10-05 18:50:00,
2013-10-05 15:05:00,75.9,67.0,29.98,ESE,113,0.0,3.0,73,0.00,,,0.00,weatherlink.com 1.10,2013-10-05 19:05:00,
2013-10-05 15:20:00,76.1,66.0,29.98,NE,51,0.0,3.0,72,0.00,,,0.00,weatherlink.com 1.10,2013-10-05 19:20:00,
2013-10-05 15:35:00,76.3,67.0,29.97,SSE,154,0.0,4.0,72,0.00,,,0.00,weatherlink.com 1.10,2013-10-05 19:35:00,
2013-10-05 15:50:00,76.6,67.0,29.98,SSE,159,0.0,3.0,72,0.00,,,0.00,weatherlink.com 1.10,2013-10-05 19:50:00,
2013-10-05 16:05:00,76.3,67.0,29.98,SSW,201,2.0,2.0,73,0.00,,,0.00,weatherlink.com 1.10,2013-10-05 20:05:00,
2013-10-05 16:20:00,75.9,67.0,29.98,SSE,150,0.0,4.0,73,0.00,,,0.00,weatherlink.com 1.10,2013-10-05 20:20:00,
2013-10-05 16:35:00,75.5,67.0,29.98,SE,142,0.0,4.0,74,0.00,,,0.00,weatherlink.com 1.10,2013-10-05 20:35:00,
2013-10-05 16:50:00,75.3,66.0,29.98,SSE,161,0.0,3.0,73,0.00,,,0.00,weatherlink.com 1.10,2013-10-05 20:50:00,
2013-10-05 17:05:00,74.9,66.0,29.97,ESE,122,1.0,3.0,74,0.00,,,0.00,weatherlink.com 1.10,2013-10-05 21:05:00,
2013-10-05 17:20:00,74.5,66.0,29.97,SSE,147,0.0,2.0,74,0.00,,,0.00,weatherlink.com 1.10,2013-10-05 21:20:00,
2013-10-05 17:35:00,74.2,66.0,29.97,SE,133,0.0,2.0,75,0.00,,,0.00,weatherlink.com 1.10,2013-10-05 21:35:00,
2013-10-05 17:50:00,73.8,65.0,29.98,South,171,0.0,3.0,75,0.00,,,0.00,weatherlink.com 1.10,2013-10-05 21:50:00,
2013-10-05 18:05:00,73.3,65.0,29.97,ESE,109,1.0,2.0,76,0.00,,,0.00,weatherlink.com 1.10,2013-10-05 22:05:00,
2013-10-05 18:20:00,72.6,65.0,29.98,SSE,159,0.0,2.0,77,0.00,,,0.00,weatherlink.com 1.10,2013-10-05 22:20:00,
2013-10-05 18:35:00,72.0,65.0,29.98,SSE,157,0.0,2.0,78,0.00,,,0.00,weatherlink.com 1.10,2013-10-05 22:35:00,
2013-10-05 18:50:00,71.3,65.0,29.99,SE,145,0.0,1.0,80,0.00,,,0.00,weatherlink.com 1.10,2013-10-05 22:50:00,
2013-10-05 19:05:00,70.7,65.0,29.99,SE,143,0.0,1.0,82,0.00,,,0.00,weatherlink.com 1.10,2013-10-05 23:05:00,
2013-10-05 19:20:00,70.2,65.0,29.99,SSE,155,0.0,1.0,83,0.00,,,0.00,weatherlink.com 1.10,2013-10-05 23:20:00,
2013-10-05 19:35:00,69.6,65.0,29.99,SSE,159,1.0,1.0,84,0.00,,,0.00,weatherlink.com 1.10,2013-10-05 23:35:00,
2013-10-05 19:50:00,69.0,65.0,29.99,SE,128,1.0,3.0,86,0.00,,,0.00,weatherlink.com 1.10,2013-10-05 23:50:00,
2013-10-05 20:05:00,68.6,65.0,30.00,SE,134,1.0,2.0,87,0.00,,,0.00,weatherlink.com 1.10,2013-10-06 00:05:00,
2013-10-05 20:20:00,68.3,65.0,30.01,SSE,157,0.0,2.0,88,0.00,,,0.00,weatherlink.com 1.10,2013-10-06 00:20:00,
2013-10-05 20:35:00,67.9,64.0,30.00,SE,144,0.0,2.0,88,0.00,,,0.00,weatherlink.com 1.10,2013-10-06 00:35:00,
2013-10-05 20:50:00,67.5,64.0,30.01,SE,146,0.0,1.0,89,0.00,,,0.00,weatherlink.com 1.10,2013-10-06 00:50:00,
2013-10-05 21:05:00,67.1,64.0,30.02,SE,142,0.0,3.0,90,0.00,,,0.00,weatherlink.com 1.10,2013-10-06 01:05:00,
2013-10-05 21:20:00,66.8,64.0,30.02,SSE,148,0.0,3.0,91,0.00,,,0.00,weatherlink.com 1.10,2013-10-06 01:20:00,
2013-10-05 21:35:00,66.5,64.0,30.02,SE,133,0.0,1.0,91,0.00,,,0.00,weatherlink.com 1.10,2013-10-06 01:35:00,
2013-10-05 21:50:00,66.4,64.0,30.02,SE,133,0.0,1.0,92,0.00,,,0.00,weatherlink.com 1.10,2013-10-06 01:50:00,
2013-10-05 22:05:00,66.4,64.0,30.02,SE,134,0.0,2.0,92,0.00,,,0.00,weatherlink.com 1.10,2013-10-06 02:05:00,
2013-10-05 22:20:00,66.3,64.0,30.02,SE,131,0.0,1.0,92,0.00,,,0.00,weatherlink.com 1.10,2013-10-06 02:20:00,
2013-10-05 22:35:00,66.3,64.0,30.03,ESE,110,0.0,1.0,92,0.00,,,0.00,weatherlink.com 1.10,2013-10-06 02:35:00,
2013-10-05 22:50:00,66.3,64.0,30.02,ESE,110,0.0,2.0,92,0.00,,,0.00,weatherlink.com 1.10,2013-10-06 02:50:00,
2013-10-05 23:05:00,66.2,64.0,30.03,East,98,0.0,1.0,92,0.00,,,0.00,weatherlink.com 1.10,2013-10-06 03:05:00,
2013-10-05 23:20:00,66.2,64.0,30.03,ESE,112,0.0,2.0,93,0.00,,,0.00,weatherlink.com 1.10,2013-10-06 03:20:00,
2013-10-05 23:35:00,66.2,64.0,30.02,SE,131,0.0,2.0,93,0.00,,,0.00,weatherlink.com 1.10,2013-10-06 03:35:00,
2013-10-05 23:50:00,66.1,64.0,30.03,South,171,0.0,2.0,93,0.00,,,0.00,weatherlink.com 1.10,2013-10-06 03:50:00,